Terminal Aerodrome Forecast
Issued by NWS

Home | Current Version | Previous Version | Text Only | Print | Product List | Glossary On
Versions: 1 2 3 4 5 6 7 8 9 10 11 12 13 14
000
FTUS45 KGGW 250500
TAFSDY
TAF
KSDY 250535Z 2506/2606 35007KT P6SM VCSH FEW020 OVC050
     FM250900 03014KT 6SM -SHSN BR BKN020 OVC035
     FM251200 01012KT P6SM VCSH OVC008
     FM260000 36010KT P6SM BKN030
      AMD LTD TO CLD VIS AND WIND=

USA.gov is the U.S. government's official web portal to all federal, state and local government web resources and services.